Robert Burton — WDC7911 — position and weather

sailwx.info

Track history (hours):
 
Tides and Currents Weather Stations Pressure Air Temp Water Temp Dewpoint Dewpoint Depression Visibility Wind Speed Wind Dir Waves Ship Positions

Robert Burton

Owner: Norfolk Tug Company, Norfolk, VA. More information available from US FCC via Universal Licensing System and Coast Guard Vessel Documentation Center.

Last reported at 2018-Jun-22 11:20 UTC. Time now 2018-Jun-22 13:22 UTC.
Position N 40°38' W 074°12'.

Length 25 m; draft 3 m.

Type: Tug. MMSI: 367078850.

Date/timePositionNaut miles runAvg speedWind from/ knotsBaromVisibWave heightAir tempDewpointWater temp
2018-Jun-22 11:20N 40°38' W 074°12'0 0.0
2018-Jun-22 11:00N 40°38' W 074°12'0 0.0
2018-Jun-22 10:19N 40°38' W 074°12'0 0.0
2018-Jun-22 09:23N 40°38' W 074°12'0 0.0
2018-Jun-22 07:36N 40°38' W 074°12'0 0.0
2018-Jun-22 07:11N 40°38' W 074°12'0 0.0
2018-Jun-22 06:18N 40°38' W 074°12'0 0.0
2018-Jun-22 05:59N 40°38' W 074°12'0 0.0
2018-Jun-22 04:48N 40°38' W 074°12'0 0.0
2018-Jun-22 04:29N 40°38' W 074°12'0 0.0
2018-Jun-22 01:15N 40°38' W 074°12'0 0.0
2018-Jun-22 00:46N 40°38' W 074°12'0 0.0
2018-Jun-22 00:30N 40°38' W 074°12'0 0.0
2018-Jun-21 23:55N 40°38' W 074°12'0 0.0
2018-Jun-21 23:03N 40°38' W 074°12'0 0.0
2018-Jun-21 22:57N 40°38' W 074°12'0 0.8
2018-Jun-21 22:24N 40°39' W 074°11'1 3.5
2018-Jun-21 22:00N 40°39' W 074°10'2 4.1
2018-Jun-21 21:30N 40°39' W 074°07'2 4.2
2018-Jun-21 21:00N 40°39' W 074°04'2 4.4
2018-Jun-21 20:30N 40°39' W 074°01'1 2.6
2018-Jun-21 20:00N 40°40' W 073°60'0 0.0
2018-Jun-21 19:30N 40°40' W 073°60'3 5.5
2018-Jun-21 19:00N 40°39' W 074°03'3 5.6
2018-Jun-21 18:29N 40°39' W 074°07'3 5.8
2018-Jun-21 17:56N 40°39' W 074°11'1 1.5
2018-Jun-21 17:29N 40°38' W 074°12'0 0.0
2018-Jun-21 16:59N 40°38' W 074°12'0 0.0
2018-Jun-21 16:23N 40°38' W 074°12'0 0.0
2018-Jun-21 16:00N 40°38' W 074°12'0 0.0
2018-Jun-21 15:28N 40°38' W 074°12'0 0.0
2018-Jun-21 15:00N 40°38' W 074°12'0 0.0
2018-Jun-21 13:47N 40°38' W 074°12'0 0.0
2018-Jun-21 13:29N 40°38' W 074°12'0 0.0
2018-Jun-21 12:57N 40°38' W 074°12'0 0.0
2018-Jun-21 12:27N 40°38' W 074°12'0 0.0
2018-Jun-21 11:50N 40°38' W 074°12'0 0.0
2018-Jun-21 11:28N 40°38' W 074°12'0 0.0
2018-Jun-21 11:00N 40°38' W 074°12'0 0.0
2018-Jun-21 10:07N 40°38' W 074°12'0 0.0
2018-Jun-21 10:00N 40°38' W 074°12'0 0.0
2018-Jun-21 09:30N 40°38' W 074°12'0 0.0
2018-Jun-21 08:52N 40°38' W 074°12'0 0.0
2018-Jun-21 08:30N 40°38' W 074°12'0 0.0
2018-Jun-21 07:27N 40°38' W 074°12'0 0.0
2018-Jun-21 06:46N 40°38' W 074°12'0 0.0
2018-Jun-21 06:23N 40°38' W 074°12'0 0.0
2018-Jun-21 05:58N 40°38' W 074°12'0 0.0
2018-Jun-21 05:28N 40°38' W 074°12'0 0.0
2018-Jun-21 04:51N 40°38' W 074°12'0 0.0
2018-Jun-21 04:24N 40°38' W 074°12'0 0.0
2018-Jun-21 03:57N 40°38' W 074°12'0 0.0
2018-Jun-21 03:25N 40°38' W 074°12'0 0.0
2018-Jun-21 02:55N 40°38' W 074°12'0 0.0
2018-Jun-20 22:28N 40°38' W 074°12'2 3.7
2018-Jun-20 22:00N 40°39' W 074°10'2 3.9
2018-Jun-20 21:30N 40°39' W 074°07'2 3.8
2018-Jun-20 21:00N 40°39' W 074°05'2 4.4
2018-Jun-20 20:30N 40°39' W 074°02'2 3.4
2018-Jun-20 20:01N 40°40' W 073°60'0 0.0
2018-Jun-20 19:30N 40°40' W 073°60'2 4.5
2018-Jun-20 19:00N 40°39' W 074°02'4 5.8
2018-Jun-20 18:23N 40°39' W 074°07'3 6.3
2018-Jun-20 17:53N 40°39' W 074°11'1 1.6
2018-Jun-20 17:29N 40°38' W 074°12'0 0.0
2018-Jun-20 17:00N 40°38' W 074°12'0 0.0
2018-Jun-20 14:11N 40°38' W 074°12'0 0.0
2018-Jun-20 13:42N 40°38' W 074°12'0 0.0
2018-Jun-20 13:28N 40°38' W 074°12'0 0.0
2018-Jun-20 12:57N 40°38' W 074°12'0 0.0
2018-Jun-20 12:30N 40°38' W 074°12'0 0.0
2018-Jun-20 12:00N 40°38' W 074°12'0 0.0
2018-Jun-20 09:17N 40°38' W 074°12'0 0.0
2018-Jun-20 08:53N 40°38' W 074°12'0 0.0
2018-Jun-20 08:30N 40°38' W 074°12'0 0.0
2018-Jun-20 08:00N 40°38' W 074°12'0 0.0
2018-Jun-20 07:21N 40°38' W 074°12'0 0.0
2018-Jun-20 06:58N 40°38' W 074°12'0 0.0
2018-Jun-20 05:52N 40°38' W 074°12'0 0.0
2018-Jun-20 05:26N 40°38' W 074°12'0 0.0
2018-Jun-20 04:52N 40°38' W 074°12'0 0.0
2018-Jun-20 04:30N 40°38' W 074°12'0 0.0
2018-Jun-20 03:40N 40°38' W 074°12'0 0.0
2018-Jun-20 03:29N 40°38' W 074°12'0 0.0
2018-Jun-20 02:53N 40°38' W 074°12'0 0.0
2018-Jun-20 02:30N 40°38' W 074°12'0 0.0
2018-Jun-20 01:10N 40°38' W 074°12'0 0.0
2018-Jun-20 00:51N 40°38' W 074°12'1 3.0
2018-Jun-20 00:28N 40°39' W 074°11'2 5.1
2018-Jun-20 00:00N 40°39' W 074°07'2 4.9
2018-Jun-19 23:30N 40°39' W 074°04'2 4.3
2018-Jun-19 23:00N 40°40' W 074°01'1 2.6
2018-Jun-19 22:31N 40°40' W 073°60'1 1.7
2018-Jun-19 22:01N 40°40' W 074°01'1 2.9
2018-Jun-19 21:30N 40°41' W 074°01'3 5.1
2018-Jun-19 21:00N 40°40' W 074°03'2 3.6
2018-Jun-19 20:30N 40°41' W 074°01'1 1.6
2018-Jun-19 20:00N 40°40' W 074°01'0 0.9
2018-Jun-19 19:30N 40°40' W 074°01'3 5.5
2018-Jun-19 19:00N 40°39' W 074°04'3 6.5
2018-Jun-19 18:29N 40°38' W 074°09'2 5.0
2018-Jun-19 18:00N 40°38' W 074°12'0 0.0
2018-Jun-19 17:29N 40°38' W 074°12'0 0.0
2018-Jun-19 16:56N 40°38' W 074°12'0 0.0
2018-Jun-19 16:29N 40°38' W 074°12'0 0.1
2018-Jun-19 15:03N 40°38' W 074°12'0 1.2
2018-Jun-19 14:57N 40°38' W 074°12'2 4.1
2018-Jun-19 14:25N 40°39' W 074°09'3 6.2
2018-Jun-19 14:00N 40°39' W 074°06'3 5.2
2018-Jun-19 13:30N 40°39' W 074°02'2 4.3
2018-Jun-19 13:00N 40°40' W 073°60'0 0.1
2018-Jun-19 12:30N 40°40' W 073°60'0 0.0
2018-Jun-19 12:00N 40°40' W 073°60'0 0.0
2018-Jun-19 11:30N 40°40' W 073°60'0 0.0
2018-Jun-19 10:59N 40°40' W 073°60'0 0.0
2018-Jun-19 10:30N 40°40' W 073°60'0 0.0
2018-Jun-19 10:00N 40°40' W 073°60'0 0.0
2018-Jun-19 09:29N 40°40' W 073°60'0 0.0
2018-Jun-19 09:00N 40°40' W 073°60'0 0.0
2018-Jun-19 08:30N 40°40' W 073°60'0 0.0
2018-Jun-19 08:00N 40°40' W 073°60'0 0.0
2018-Jun-19 07:30N 40°40' W 073°60'0 0.0
2018-Jun-19 07:00N 40°40' W 073°60'0 0.0
2018-Jun-19 06:30N 40°40' W 073°60'0 0.0
2018-Jun-19 06:00N 40°40' W 073°60'0 0.0
2018-Jun-19 05:30N 40°40' W 073°60'0 0.0
2018-Jun-19 05:00N 40°40' W 073°60'0 0.0
2018-Jun-19 04:30N 40°40' W 073°60'0 0.0
2018-Jun-19 04:00N 40°40' W 073°60'0 0.0
2018-Jun-19 03:30N 40°40' W 073°60'0 0.0
2018-Jun-19 03:00N 40°40' W 073°60'0 0.0
2018-Jun-19 02:30N 40°40' W 073°60'0 0.0
2018-Jun-19 02:00N 40°40' W 073°60'0 0.0
2018-Jun-19 01:30N 40°40' W 073°60'0 0.0
2018-Jun-19 01:00N 40°40' W 073°60'0 0.0
2018-Jun-19 00:30N 40°40' W 073°60'0 0.0
2018-Jun-19 00:00N 40°40' W 073°60'0 0.0
2018-Jun-18 23:30N 40°40' W 073°60'0 0.0
2018-Jun-18 22:59N 40°40' W 073°60'0 0.0
2018-Jun-18 22:30N 40°40' W 073°60'0 0.0
2018-Jun-18 22:00N 40°40' W 073°60'0 0.0
2018-Jun-18 21:30N 40°40' W 073°60'0 0.0
2018-Jun-18 21:00N 40°40' W 073°60'0 0.0
2018-Jun-18 20:27N 40°40' W 073°60'0 0.0
2018-Jun-18 20:00N 40°40' W 073°60'0 0.0
2018-Jun-18 19:30N 40°40' W 073°60'0 0.0
2018-Jun-18 19:00N 40°40' W 073°60'2 4.0
2018-Jun-18 18:30N 40°39' W 074°02'4 6.3
2018-Jun-18 17:55N 40°39' W 074°07'3 6.6
2018-Jun-18 17:26N 40°39' W 074°11'1 1.4
2018-Jun-18 16:59N 40°38' W 074°12'0 0.0
2018-Jun-18 16:30N 40°38' W 074°12'0 0.0
2018-Jun-18 15:56N 40°38' W 074°12'0 0.7
2018-Jun-18 15:19N 40°39' W 074°11'1 3.4
2018-Jun-18 15:00N 40°39' W 074°10'3 5.4
2018-Jun-18 14:30N 40°39' W 074°07'3 5.4
2018-Jun-18 14:00N 40°39' W 074°03'2 3.9
2018-Jun-18 13:30N 40°40' W 074°01'1 1.3
2018-Jun-18 13:00N 40°40' W 073°60'0 0.0
2018-Jun-18 12:30N 40°40' W 073°60'0 0.0
2018-Jun-18 12:00N 40°40' W 073°60'0 0.0
2018-Jun-18 11:30N 40°40' W 073°60'0 0.0
2018-Jun-18 10:59N 40°40' W 073°60'0 0.0
2018-Jun-18 10:30N 40°40' W 073°60'0 0.0
2018-Jun-18 10:00N 40°40' W 073°60'0 0.0
2018-Jun-18 09:30N 40°40' W 073°60'0 0.0
2018-Jun-18 09:00N 40°40' W 073°60'0 0.0
2018-Jun-18 08:31N 40°40' W 073°60'0 0.0
2018-Jun-18 08:00N 40°40' W 073°60'0 0.0
2018-Jun-18 07:30N 40°40' W 073°60'0 0.0
2018-Jun-18 07:00N 40°40' W 073°60'0 0.0
2018-Jun-18 06:30N 40°40' W 073°60'0 0.0
2018-Jun-18 05:59N 40°40' W 073°60'0 0.0
2018-Jun-18 05:30N 40°40' W 073°60'0 0.0
2018-Jun-18 05:00N 40°40' W 073°60'0 0.0
2018-Jun-18 04:30N 40°40' W 073°60'0 0.0
2018-Jun-18 04:00N 40°40' W 073°60'0 0.0
2018-Jun-18 03:30N 40°40' W 073°60'0 0.0
2018-Jun-18 03:00N 40°40' W 073°60'0 0.0
2018-Jun-18 02:30N 40°40' W 073°60'0 0.0
2018-Jun-18 02:00N 40°40' W 073°60'0 0.0
2018-Jun-18 01:30N 40°40' W 073°60'0 0.0
2018-Jun-18 01:00N 40°40' W 073°60'0 0.0
2018-Jun-18 00:30N 40°40' W 073°60'0 0.0
2018-Jun-18 00:00N 40°40' W 073°60'0 0.0
2018-Jun-17 23:30N 40°40' W 073°60'0 0.0
2018-Jun-17 22:59N 40°40' W 073°60'0 0.0
2018-Jun-17 22:30N 40°40' W 073°60'0 0.0
2018-Jun-17 22:00N 40°40' W 073°60'0 0.0
2018-Jun-17 21:30N 40°40' W 073°60'0 0.0
2018-Jun-17 21:00N 40°40' W 073°60'0 0.0
2018-Jun-17 20:25N 40°40' W 073°60'0 0.0
2018-Jun-17 19:59N 40°40' W 073°60'0 0.0
2018-Jun-17 19:22N 40°40' W 073°60'0 0.0
2018-Jun-17 18:54N 40°40' W 073°60'0 0.0
2018-Jun-17 18:20N 40°40' W 073°60'0 0.0
2018-Jun-17 17:58N 40°40' W 073°60'0 0.0
2018-Jun-17 17:15N 40°40' W 073°60'0 0.0
2018-Jun-17 17:00N 40°40' W 073°60'0 0.0
2018-Jun-17 16:19N 40°40' W 073°60'0 0.0
2018-Jun-17 15:07N 40°40' W 073°60'0 0.0
2018-Jun-17 15:00N 40°40' W 073°60'0 0.0
2018-Jun-17 13:54N 40°40' W 073°60'0 0.0
2018-Jun-17 13:27N 40°40' W 073°60'0 0.0
2018-Jun-17 12:58N 40°40' W 073°60'0 0.0
2018-Jun-17 12:16N 40°40' W 073°60'0 0.0
2018-Jun-17 12:00N 40°40' W 073°60'0 0.0
2018-Jun-17 11:20N 40°40' W 073°60'0 0.0
2018-Jun-17 11:00N 40°40' W 073°60'0 0.0
2018-Jun-17 10:30N 40°40' W 073°60'0 0.0
2018-Jun-17 10:00N 40°40' W 073°60'0 0.0
2018-Jun-17 09:29N 40°40' W 073°60'0 0.0
2018-Jun-17 09:00N 40°40' W 073°60'0 0.0
2018-Jun-17 08:30N 40°40' W 073°60'0 0.0
2018-Jun-17 08:00N 40°40' W 073°60'0 0.0
2018-Jun-17 07:30N 40°40' W 073°60'0 0.0
2018-Jun-17 07:00N 40°40' W 073°60'0 0.0
2018-Jun-17 06:29N 40°40' W 073°60'0 0.0
2018-Jun-17 06:00N 40°40' W 073°60'0 0.0
2018-Jun-17 05:30N 40°40' W 073°60'0 0.0
2018-Jun-17 05:00N 40°40' W 073°60'0 0.0
2018-Jun-17 04:30N 40°40' W 073°60'0 0.0
2018-Jun-17 04:00N 40°40' W 073°60'0 0.0
2018-Jun-17 03:30N 40°40' W 073°60'0 0.0
2018-Jun-17 03:00N 40°40' W 073°60'0 0.0
2018-Jun-17 02:30N 40°40' W 073°60'0 0.0
2018-Jun-17 02:00N 40°40' W 073°60'0 0.0
2018-Jun-17 01:30N 40°40' W 073°60'0 0.0
2018-Jun-17 01:00N 40°40' W 073°60'0 0.0
2018-Jun-17 00:30N 40°40' W 073°60'0 0.1
2018-Jun-17 00:00N 40°40' W 073°60'0 0.0
2018-Jun-16 23:30N 40°40' W 073°60'0 0.0
2018-Jun-16 23:00N 40°40' W 073°60'0 0.0
2018-Jun-16 22:30N 40°40' W 073°60'0 0.0
2018-Jun-16 22:00N 40°40' W 073°60'0 0.0
2018-Jun-16 21:30N 40°40' W 073°60'0 0.0
2018-Jun-16 21:00N 40°40' W 073°60'0 0.0
2018-Jun-16 20:30N 40°40' W 073°60'0 0.0
2018-Jun-16 20:00N 40°40' W 073°60'2 4.5
2018-Jun-16 19:29N 40°39' W 074°03'4 6.4
2018-Jun-16 18:47N 40°39' W 074°08'2 5.8
2018-Jun-16 18:25N 40°39' W 074°11'1 1.4
2018-Jun-16 17:56N 40°38' W 074°12'0 0.0
2018-Jun-16 17:24N 40°38' W 074°12'0 0.0
2018-Jun-16 16:59N 40°38' W 074°12'0 0.3
2018-Jun-16 16:30N 40°38' W 074°12'0 0.0
2018-Jun-16 15:59N 40°38' W 074°12'0 0.0
2018-Jun-16 15:30N 40°38' W 074°12'0 0.1
2018-Jun-16 14:35N 40°38' W 074°12'0 0.0
2018-Jun-16 14:29N 40°38' W 074°12'0 0.0
2018-Jun-16 13:48N 40°38' W 074°12'0 0.0
2018-Jun-16 13:29N 40°38' W 074°12'0 0.0
2018-Jun-16 12:59N 40°38' W 074°12'0 0.1
2018-Jun-16 12:29N 40°38' W 074°12'2 3.5
2018-Jun-16 12:00N 40°39' W 074°10'3 6.1
2018-Jun-16 11:30N 40°39' W 074°06'2 4.3
2018-Jun-16 11:00N 40°39' W 074°03'2 3.9
2018-Jun-16 10:30N 40°40' W 074°01'1 1.3
2018-Jun-16 10:00N 40°40' W 073°60'0 0.0
2018-Jun-16 09:30N 40°40' W 073°60'0 0.0
2018-Jun-16 09:00N 40°40' W 073°60'0 0.0
2018-Jun-16 08:30N 40°40' W 073°60'0 0.0
2018-Jun-16 08:00N 40°40' W 073°60'0 0.0
2018-Jun-16 07:30N 40°40' W 073°60'0 0.0
2018-Jun-16 07:00N 40°40' W 073°60'0 0.0
2018-Jun-16 06:30N 40°40' W 073°60'0 0.0
2018-Jun-16 06:00N 40°40' W 073°60'0 0.0
2018-Jun-16 05:30N 40°40' W 073°60'0 0.0
2018-Jun-16 05:00N 40°40' W 073°60'0 0.0
2018-Jun-16 04:30N 40°40' W 073°60'0 0.0
2018-Jun-16 04:00N 40°40' W 073°60'0 0.0
2018-Jun-16 03:30N 40°40' W 073°60'0 0.0
2018-Jun-16 03:00N 40°40' W 073°60'0 0.0
2018-Jun-16 02:31N 40°40' W 073°60'0 0.1
2018-Jun-16 02:00N 40°40' W 073°60'0 0.0
2018-Jun-16 01:30N 40°40' W 073°60'0 0.0
2018-Jun-16 01:00N 40°40' W 073°60'0 0.0
2018-Jun-16 00:30N 40°40' W 073°60'0 0.0
2018-Jun-16 00:00N 40°40' W 073°60'0 0.0
2018-Jun-15 23:29N 40°40' W 073°60'0 0.0
2018-Jun-15 23:00N 40°40' W 073°60'0 0.0
2018-Jun-15 22:30N 40°40' W 073°60'0 0.0
2018-Jun-15 22:00N 40°40' W 073°60'0 0.0
2018-Jun-15 21:30N 40°40' W 073°60'0 0.0
2018-Jun-15 21:00N 40°40' W 073°60'0 0.0
2018-Jun-15 20:30N 40°40' W 073°60'0 0.0
2018-Jun-15 20:00N 40°40' W 073°60'0 0.5
2018-Jun-15 19:30N 40°40' W 074°00'3 5.1
2018-Jun-15 19:00N 40°39' W 074°03'4 6.7
2018-Jun-15 18:25N 40°39' W 074°08'3 4.5
2018-Jun-15 17:49N 40°38' W 074°12'0 0.0
2018-Jun-15 17:22N 40°38' W 074°12'0 0.1
2018-Jun-15 17:00N 40°38' W 074°12'0 0.0
2018-Jun-15 16:30N 40°38' W 074°12'0 0.0
2018-Jun-15 16:00N 40°38' W 074°12'0 0.0
2018-Jun-15 13:16N 40°38' W 074°12'1 3.1
2018-Jun-15 12:55N 40°39' W 074°11'2 5.1
2018-Jun-15 12:30N 40°39' W 074°08'3 5.6
2018-Jun-15 12:00N 40°39' W 074°04'2 4.3
2018-Jun-15 11:30N 40°39' W 074°01'1 2.6
2018-Jun-15 11:00N 40°40' W 073°60'0 0.0
2018-Jun-15 10:30N 40°40' W 073°60'0 0.0
2018-Jun-15 10:00N 40°40' W 073°60'0 0.0
2018-Jun-15 09:30N 40°40' W 073°60'0 0.0
2018-Jun-15 09:00N 40°40' W 073°60'0 0.0
2018-Jun-15 08:30N 40°40' W 073°60'0 0.0
2018-Jun-15 08:00N 40°40' W 073°60'0 0.0
2018-Jun-15 07:30N 40°40' W 073°60'0 0.0
2018-Jun-15 07:00N 40°40' W 073°60'0 0.0
2018-Jun-15 06:30N 40°40' W 073°60'0 0.0
2018-Jun-15 06:00N 40°40' W 073°60'0 0.0
2018-Jun-15 05:29N 40°40' W 073°60'0 0.0
2018-Jun-15 05:00N 40°40' W 073°60'0 0.0
2018-Jun-15 04:30N 40°40' W 073°60'0 0.0
2018-Jun-15 04:00N 40°40' W 073°60'0 0.0
2018-Jun-15 03:30N 40°40' W 073°60'0 0.0
2018-Jun-15 03:00N 40°40' W 073°60'0 0.0
2018-Jun-15 02:30N 40°40' W 073°60'0 0.0
2018-Jun-15 01:59N 40°40' W 073°60'0 0.0
2018-Jun-15 01:30N 40°40' W 073°60'0 0.0
2018-Jun-15 01:00N 40°40' W 073°60'0 0.0
2018-Jun-15 00:30N 40°40' W 073°60'0 0.0
2018-Jun-15 00:00N 40°40' W 073°60'0 0.0
2018-Jun-14 23:30N 40°40' W 073°60'0 0.0
2018-Jun-14 23:00N 40°40' W 073°60'0 0.0
2018-Jun-14 22:30N 40°40' W 073°60'0 0.0
2018-Jun-14 22:00N 40°40' W 073°60'0 0.0
2018-Jun-14 21:30N 40°40' W 073°60'0 0.0
2018-Jun-14 21:00N 40°40' W 073°60'0 0.0
2018-Jun-14 20:30N 40°40' W 073°60'0 0.0
2018-Jun-14 20:00N 40°40' W 073°60'0 0.0
2018-Jun-14 19:30N 40°40' W 073°60'0 0.0
2018-Jun-14 19:00N 40°40' W 073°60'1 2.3
2018-Jun-14 18:30N 40°41' W 074°01'1 1.2
2018-Jun-14 18:00N 40°41' W 074°01'2 3.3
2018-Jun-14 17:30N 40°40' W 074°03'2 4.9
2018-Jun-14 17:00N 40°41' W 074°01'1 1.9
2018-Jun-14 16:30N 40°40' W 074°01'1 1.9
2018-Jun-14 16:00N 40°40' W 074°00'3 5.6
2018-Jun-14 15:27N 40°39' W 074°04'4 6.4
2018-Jun-14 14:54N 40°39' W 074°08'2 6.0
2018-Jun-14 14:29N 40°38' W 074°12'0 0.2
2018-Jun-14 14:00N 40°38' W 074°12'0 0.0
2018-Jun-14 13:21N 40°38' W 074°12'0 0.0
2018-Jun-14 11:53N 40°38' W 074°12'1 3.3
2018-Jun-14 11:25N 40°39' W 074°10'1 1.9
2018-Jun-14 11:00N 40°38' W 074°09'0 0.1
2018-Jun-14 09:57N 40°38' W 074°09'2 0.4
2018-Jun-14 04:00N 40°38' W 074°12'0 0.0
2018-Jun-14 02:56N 40°38' W 074°12'0 0.0
2018-Jun-14 02:29N 40°38' W 074°12'0 0.0
2018-Jun-14 01:46N 40°38' W 074°12'0 0.0
2018-Jun-14 01:28N 40°38' W 074°12'0 0.0
2018-Jun-14 00:56N 40°38' W 074°12'1 1.8
2018-Jun-14 00:10N 40°39' W 074°10'1 4.6
2018-Jun-14 00:00N 40°39' W 074°09'2 4.2
2018-Jun-13 23:30N 40°39' W 074°06'3 5.1
2018-Jun-13 23:00N 40°39' W 074°03'2 3.8
2018-Jun-13 22:30N 40°40' W 074°01'1 1.6
2018-Jun-13 22:00N 40°40' W 073°60'0 0.0
2018-Jun-13 21:30N 40°40' W 073°60'0 0.0
2018-Jun-13 21:00N 40°40' W 073°60'0 0.0
2018-Jun-13 20:30N 40°40' W 073°60'0 0.0
2018-Jun-13 20:00N 40°40' W 073°60'0 0.0
2018-Jun-13 19:30N 40°40' W 073°60'0 0.0
2018-Jun-13 19:00N 40°40' W 073°60'2 4.5
2018-Jun-13 18:29N 40°39' W 074°03'3 5.9
2018-Jun-13 17:56N 40°39' W 074°07'3 5.9
2018-Jun-13 17:22N 40°39' W 074°11'1 1.8
2018-Jun-13 17:00N 40°38' W 074°12'0 0.1
2018-Jun-13 16:29N 40°38' W 074°12'0 0.0
2018-Jun-13 15:56N 40°38' W 074°12'0 0.0
2018-Jun-13 15:30N 40°38' W 074°12'0 0.0
2018-Jun-13 14:58N 40°38' W 074°12'2 2.9
2018-Jun-13 14:16N 40°38' W 074°09'0 0.1
2018-Jun-13 13:46N 40°38' W 074°09'0 0.1
2018-Jun-13 13:28N 40°38' W 074°09'0 0.0
2018-Jun-13 12:58N 40°38' W 074°09'0 0.0
2018-Jun-13 12:23N 40°38' W 074°09'0 0.0
2018-Jun-13 11:58N 40°38' W 074°09'0 0.0
2018-Jun-13 11:28N 40°38' W 074°09'0 0.0
2018-Jun-13 11:00N 40°38' W 074°09'0 0.0
2018-Jun-13 10:26N 40°38' W 074°09'0 0.1
2018-Jun-13 09:54N 40°38' W 074°09'2 4.6
2018-Jun-13 09:27N 40°38' W 074°12'0 0.0
2018-Jun-13 04:20N 40°38' W 074°12'2 4.5
2018-Jun-13 03:59N 40°39' W 074°10'2 3.7
2018-Jun-13 03:29N 40°39' W 074°08'1 3.1
2018-Jun-13 03:00N 40°39' W 074°06'2 3.5
2018-Jun-13 02:30N 40°39' W 074°03'2 5.0
2018-Jun-13 02:00N 40°40' W 074°00'0 0.7
2018-Jun-13 01:31N 40°40' W 073°60'0 0.0
2018-Jun-13 01:00N 40°40' W 073°60'0 0.0
2018-Jun-13 00:30N 40°40' W 073°60'0 0.0
2018-Jun-13 00:00N 40°40' W 073°60'0 0.0
2018-Jun-12 23:30N 40°40' W 073°60'0 0.0
2018-Jun-12 23:00N 40°40' W 073°60'0 0.0
2018-Jun-12 22:29N 40°40' W 073°60'0 0.0
2018-Jun-12 22:00N 40°40' W 073°60'0 0.0
2018-Jun-12 21:28N 40°40' W 073°60'2 4.8
2018-Jun-12 21:00N 40°40' W 074°03'1 1.2
2018-Jun-12 20:30N 40°40' W 074°03'2 4.7
2018-Jun-12 20:00N 40°40' W 074°00'0 0.7
2018-Jun-12 19:31N 40°40' W 073°60'1 2.4
2018-Jun-12 19:00N 40°40' W 074°01'3 5.0
2018-Jun-12 18:27N 40°39' W 074°05'3 6.0
2018-Jun-12 18:00N 40°39' W 074°08'3 5.0
2018-Jun-12 17:28N 40°38' W 074°12'1 0.9
2018-Jun-12 16:22N 40°39' W 074°11'2 5.2
2018-Jun-12 16:00N 40°39' W 074°08'2 4.2
2018-Jun-12 15:30N 40°39' W 074°06'2 4.7
2018-Jun-12 15:00N 40°39' W 074°03'2 4.6
2018-Jun-12 14:30N 40°40' W 073°60'0 0.1
2018-Jun-12 14:00N 40°40' W 073°60'0 0.0
2018-Jun-12 13:30N 40°40' W 073°60'0 0.0
2018-Jun-12 13:00N 40°40' W 073°60'0 0.0
2018-Jun-12 12:30N 40°40' W 073°60'0 0.0
2018-Jun-12 12:00N 40°40' W 073°60'0 0.0
2018-Jun-12 11:30N 40°40' W 073°60'  
Track history (hours):
 
Tides and Currents Weather Stations Pressure Air Temp Water Temp Dewpoint Dewpoint Depression Visibility Wind Speed Wind Dir Waves Ship Positions

Robert Burton

Owner: Norfolk Tug Company, Norfolk, VA. More information available from US FCC via Universal Licensing System and Coast Guard Vessel Documentation Center.

Last reported at 2018-Jun-22 11:20 UTC. Time now 2018-Jun-22 13:22 UTC.
Position N 40°38' W 074°12'.

Length 25 m; draft 3 m.

Type: Tug. MMSI: 367078850.

Date/timePositionNaut miles runAvg speedWind from/ knotsBaromVisibWave heightAir tempDewpointWater temp
2018-Jun-22 11:20N 40°38' W 074°12'0 0.0
2018-Jun-22 11:00N 40°38' W 074°12'0 0.0
2018-Jun-22 10:19N 40°38' W 074°12'0 0.0
2018-Jun-22 09:23N 40°38' W 074°12'0 0.0
2018-Jun-22 07:36N 40°38' W 074°12'0 0.0
2018-Jun-22 07:11N 40°38' W 074°12'0 0.0
2018-Jun-22 06:18N 40°38' W 074°12'0 0.0
2018-Jun-22 05:59N 40°38' W 074°12'0 0.0
2018-Jun-22 04:48N 40°38' W 074°12'0 0.0
2018-Jun-22 04:29N 40°38' W 074°12'0 0.0
2018-Jun-22 01:15N 40°38' W 074°12'0 0.0
2018-Jun-22 00:46N 40°38' W 074°12'0 0.0
2018-Jun-22 00:30N 40°38' W 074°12'0 0.0
2018-Jun-21 23:55N 40°38' W 074°12'0 0.0
2018-Jun-21 23:03N 40°38' W 074°12'0 0.0
2018-Jun-21 22:57N 40°38' W 074°12'0 0.8
2018-Jun-21 22:24N 40°39' W 074°11'1 3.5
2018-Jun-21 22:00N 40°39' W 074°10'2 4.1
2018-Jun-21 21:30N 40°39' W 074°07'2 4.2
2018-Jun-21 21:00N 40°39' W 074°04'2 4.4
2018-Jun-21 20:30N 40°39' W 074°01'1 2.6
2018-Jun-21 20:00N 40°40' W 073°60'0 0.0
2018-Jun-21 19:30N 40°40' W 073°60'3 5.5
2018-Jun-21 19:00N 40°39' W 074°03'3 5.6
2018-Jun-21 18:29N 40°39' W 074°07'3 5.8
2018-Jun-21 17:56N 40°39' W 074°11'1 1.5
2018-Jun-21 17:29N 40°38' W 074°12'0 0.0
2018-Jun-21 16:59N 40°38' W 074°12'0 0.0
2018-Jun-21 16:23N 40°38' W 074°12'0 0.0
2018-Jun-21 16:00N 40°38' W 074°12'0 0.0
2018-Jun-21 15:28N 40°38' W 074°12'0 0.0
2018-Jun-21 15:00N 40°38' W 074°12'0 0.0
2018-Jun-21 13:47N 40°38' W 074°12'0 0.0
2018-Jun-21 13:29N 40°38' W 074°12'0 0.0
2018-Jun-21 12:57N 40°38' W 074°12'0 0.0
2018-Jun-21 12:27N 40°38' W 074°12'0 0.0
2018-Jun-21 11:50N 40°38' W 074°12'0 0.0
2018-Jun-21 11:28N 40°38' W 074°12'0 0.0
2018-Jun-21 11:00N 40°38' W 074°12'0 0.0
2018-Jun-21 10:07N 40°38' W 074°12'0 0.0
2018-Jun-21 10:00N 40°38' W 074°12'0 0.0
2018-Jun-21 09:30N 40°38' W 074°12'0 0.0
2018-Jun-21 08:52N 40°38' W 074°12'0 0.0
2018-Jun-21 08:30N 40°38' W 074°12'0 0.0
2018-Jun-21 07:27N 40°38' W 074°12'0 0.0
2018-Jun-21 06:46N 40°38' W 074°12'0 0.0
2018-Jun-21 06:23N 40°38' W 074°12'0 0.0
2018-Jun-21 05:58N 40°38' W 074°12'0 0.0
2018-Jun-21 05:28N 40°38' W 074°12'0 0.0
2018-Jun-21 04:51N 40°38' W 074°12'0 0.0
2018-Jun-21 04:24N 40°38' W 074°12'0 0.0
2018-Jun-21 03:57N 40°38' W 074°12'0 0.0
2018-Jun-21 03:25N 40°38' W 074°12'0 0.0
2018-Jun-21 02:55N 40°38' W 074°12'0 0.0
2018-Jun-20 22:28N 40°38' W 074°12'2 3.7
2018-Jun-20 22:00N 40°39' W 074°10'2 3.9
2018-Jun-20 21:30N 40°39' W 074°07'2 3.8
2018-Jun-20 21:00N 40°39' W 074°05'2 4.4
2018-Jun-20 20:30N 40°39' W 074°02'2 3.4
2018-Jun-20 20:01N 40°40' W 073°60'0 0.0
2018-Jun-20 19:30N 40°40' W 073°60'2 4.5
2018-Jun-20 19:00N 40°39' W 074°02'4 5.8
2018-Jun-20 18:23N 40°39' W 074°07'3 6.3
2018-Jun-20 17:53N 40°39' W 074°11'1 1.6
2018-Jun-20 17:29N 40°38' W 074°12'0 0.0
2018-Jun-20 17:00N 40°38' W 074°12'0 0.0
2018-Jun-20 14:11N 40°38' W 074°12'0 0.0
2018-Jun-20 13:42N 40°38' W 074°12'0 0.0
2018-Jun-20 13:28N 40°38' W 074°12'0 0.0
2018-Jun-20 12:57N 40°38' W 074°12'0 0.0
2018-Jun-20 12:30N 40°38' W 074°12'0 0.0
2018-Jun-20 12:00N 40°38' W 074°12'0 0.0
2018-Jun-20 09:17N 40°38' W 074°12'0 0.0
2018-Jun-20 08:53N 40°38' W 074°12'0 0.0
2018-Jun-20 08:30N 40°38' W 074°12'0 0.0
2018-Jun-20 08:00N 40°38' W 074°12'0 0.0
2018-Jun-20 07:21N 40°38' W 074°12'0 0.0
2018-Jun-20 06:58N 40°38' W 074°12'0 0.0
2018-Jun-20 05:52N 40°38' W 074°12'0 0.0
2018-Jun-20 05:26N 40°38' W 074°12'0 0.0
2018-Jun-20 04:52N 40°38' W 074°12'0 0.0
2018-Jun-20 04:30N 40°38' W 074°12'0 0.0
2018-Jun-20 03:40N 40°38' W 074°12'0 0.0
2018-Jun-20 03:29N 40°38' W 074°12'0 0.0
2018-Jun-20 02:53N 40°38' W 074°12'0 0.0
2018-Jun-20 02:30N 40°38' W 074°12'0 0.0
2018-Jun-20 01:10N 40°38' W 074°12'0 0.0
2018-Jun-20 00:51N 40°38' W 074°12'1 3.0
2018-Jun-20 00:28N 40°39' W 074°11'2 5.1
2018-Jun-20 00:00N 40°39' W 074°07'2 4.9
2018-Jun-19 23:30N 40°39' W 074°04'2 4.3
2018-Jun-19 23:00N 40°40' W 074°01'1 2.6
2018-Jun-19 22:31N 40°40' W 073°60'1 1.7
2018-Jun-19 22:01N 40°40' W 074°01'1 2.9
2018-Jun-19 21:30N 40°41' W 074°01'3 5.1
2018-Jun-19 21:00N 40°40' W 074°03'2 3.6
2018-Jun-19 20:30N 40°41' W 074°01'1 1.6
2018-Jun-19 20:00N 40°40' W 074°01'0 0.9
2018-Jun-19 19:30N 40°40' W 074°01'3 5.5
2018-Jun-19 19:00N 40°39' W 074°04'3 6.5
2018-Jun-19 18:29N 40°38' W 074°09'2 5.0
2018-Jun-19 18:00N 40°38' W 074°12'0 0.0
2018-Jun-19 17:29N 40°38' W 074°12'0 0.0
2018-Jun-19 16:56N 40°38' W 074°12'0 0.0
2018-Jun-19 16:29N 40°38' W 074°12'0 0.1
2018-Jun-19 15:03N 40°38' W 074°12'0 1.2
2018-Jun-19 14:57N 40°38' W 074°12'2 4.1
2018-Jun-19 14:25N 40°39' W 074°09'3 6.2
2018-Jun-19 14:00N 40°39' W 074°06'3 5.2
2018-Jun-19 13:30N 40°39' W 074°02'2 4.3
2018-Jun-19 13:00N 40°40' W 073°60'0 0.1
2018-Jun-19 12:30N 40°40' W 073°60'0 0.0
2018-Jun-19 12:00N 40°40' W 073°60'0 0.0
2018-Jun-19 11:30N 40°40' W 073°60'0 0.0
2018-Jun-19 10:59N 40°40' W 073°60'0 0.0
2018-Jun-19 10:30N 40°40' W 073°60'0 0.0
2018-Jun-19 10:00N 40°40' W 073°60'0 0.0
2018-Jun-19 09:29N 40°40' W 073°60'0 0.0
2018-Jun-19 09:00N 40°40' W 073°60'0 0.0
2018-Jun-19 08:30N 40°40' W 073°60'0 0.0
2018-Jun-19 08:00N 40°40' W 073°60'0 0.0
2018-Jun-19 07:30N 40°40' W 073°60'0 0.0
2018-Jun-19 07:00N 40°40' W 073°60'0 0.0
2018-Jun-19 06:30N 40°40' W 073°60'0 0.0
2018-Jun-19 06:00N 40°40' W 073°60'0 0.0
2018-Jun-19 05:30N 40°40' W 073°60'0 0.0
2018-Jun-19 05:00N 40°40' W 073°60'0 0.0
2018-Jun-19 04:30N 40°40' W 073°60'0 0.0
2018-Jun-19 04:00N 40°40' W 073°60'0 0.0
2018-Jun-19 03:30N 40°40' W 073°60'0 0.0
2018-Jun-19 03:00N 40°40' W 073°60'0 0.0
2018-Jun-19 02:30N 40°40' W 073°60'0 0.0
2018-Jun-19 02:00N 40°40' W 073°60'0 0.0
2018-Jun-19 01:30N 40°40' W 073°60'0 0.0
2018-Jun-19 01:00N 40°40' W 073°60'0 0.0
2018-Jun-19 00:30N 40°40' W 073°60'0 0.0
2018-Jun-19 00:00N 40°40' W 073°60'0 0.0
2018-Jun-18 23:30N 40°40' W 073°60'0 0.0
2018-Jun-18 22:59N 40°40' W 073°60'0 0.0
2018-Jun-18 22:30N 40°40' W 073°60'0 0.0
2018-Jun-18 22:00N 40°40' W 073°60'0 0.0
2018-Jun-18 21:30N 40°40' W 073°60'0 0.0
2018-Jun-18 21:00N 40°40' W 073°60'0 0.0
2018-Jun-18 20:27N 40°40' W 073°60'0 0.0
2018-Jun-18 20:00N 40°40' W 073°60'0 0.0
2018-Jun-18 19:30N 40°40' W 073°60'0 0.0
2018-Jun-18 19:00N 40°40' W 073°60'2 4.0
2018-Jun-18 18:30N 40°39' W 074°02'4 6.3
2018-Jun-18 17:55N 40°39' W 074°07'3 6.6
2018-Jun-18 17:26N 40°39' W 074°11'1 1.4
2018-Jun-18 16:59N 40°38' W 074°12'0 0.0
2018-Jun-18 16:30N 40°38' W 074°12'0 0.0
2018-Jun-18 15:56N 40°38' W 074°12'0 0.7
2018-Jun-18 15:19N 40°39' W 074°11'1 3.4
2018-Jun-18 15:00N 40°39' W 074°10'3 5.4
2018-Jun-18 14:30N 40°39' W 074°07'3 5.4
2018-Jun-18 14:00N 40°39' W 074°03'2 3.9
2018-Jun-18 13:30N 40°40' W 074°01'1 1.3
2018-Jun-18 13:00N 40°40' W 073°60'0 0.0
2018-Jun-18 12:30N 40°40' W 073°60'0 0.0
2018-Jun-18 12:00N 40°40' W 073°60'0 0.0
2018-Jun-18 11:30N 40°40' W 073°60'0 0.0
2018-Jun-18 10:59N 40°40' W 073°60'0 0.0
2018-Jun-18 10:30N 40°40' W 073°60'0 0.0
2018-Jun-18 10:00N 40°40' W 073°60'0 0.0
2018-Jun-18 09:30N 40°40' W 073°60'0 0.0
2018-Jun-18 09:00N 40°40' W 073°60'0 0.0
2018-Jun-18 08:31N 40°40' W 073°60'0 0.0
2018-Jun-18 08:00N 40°40' W 073°60'0 0.0
2018-Jun-18 07:30N 40°40' W 073°60'0 0.0
2018-Jun-18 07:00N 40°40' W 073°60'0 0.0
2018-Jun-18 06:30N 40°40' W 073°60'0 0.0
2018-Jun-18 05:59N 40°40' W 073°60'0 0.0
2018-Jun-18 05:30N 40°40' W 073°60'0 0.0
2018-Jun-18 05:00N 40°40' W 073°60'0 0.0
2018-Jun-18 04:30N 40°40' W 073°60'0 0.0
2018-Jun-18 04:00N 40°40' W 073°60'0 0.0
2018-Jun-18 03:30N 40°40' W 073°60'0 0.0
2018-Jun-18 03:00N 40°40' W 073°60'0 0.0
2018-Jun-18 02:30N 40°40' W 073°60'0 0.0
2018-Jun-18 02:00N 40°40' W 073°60'0 0.0
2018-Jun-18 01:30N 40°40' W 073°60'0 0.0
2018-Jun-18 01:00N 40°40' W 073°60'0 0.0
2018-Jun-18 00:30N 40°40' W 073°60'0 0.0
2018-Jun-18 00:00N 40°40' W 073°60'0 0.0
2018-Jun-17 23:30N 40°40' W 073°60'0 0.0
2018-Jun-17 22:59N 40°40' W 073°60'0 0.0
2018-Jun-17 22:30N 40°40' W 073°60'0 0.0
2018-Jun-17 22:00N 40°40' W 073°60'0 0.0
2018-Jun-17 21:30N 40°40' W 073°60'0 0.0
2018-Jun-17 21:00N 40°40' W 073°60'0 0.0
2018-Jun-17 20:25N 40°40' W 073°60'0 0.0
2018-Jun-17 19:59N 40°40' W 073°60'0 0.0
2018-Jun-17 19:22N 40°40' W 073°60'0 0.0
2018-Jun-17 18:54N 40°40' W 073°60'0 0.0
2018-Jun-17 18:20N 40°40' W 073°60'0 0.0
2018-Jun-17 17:58N 40°40' W 073°60'0 0.0
2018-Jun-17 17:15N 40°40' W 073°60'0 0.0
2018-Jun-17 17:00N 40°40' W 073°60'0 0.0
2018-Jun-17 16:19N 40°40' W 073°60'0 0.0
2018-Jun-17 15:07N 40°40' W 073°60'0 0.0
2018-Jun-17 15:00N 40°40' W 073°60'0 0.0
2018-Jun-17 13:54N 40°40' W 073°60'0 0.0
2018-Jun-17 13:27N 40°40' W 073°60'0 0.0
2018-Jun-17 12:58N 40°40' W 073°60'0 0.0
2018-Jun-17 12:16N 40°40' W 073°60'0 0.0
2018-Jun-17 12:00N 40°40' W 073°60'0 0.0
2018-Jun-17 11:20N 40°40' W 073°60'0 0.0
2018-Jun-17 11:00N 40°40' W 073°60'0 0.0
2018-Jun-17 10:30N 40°40' W 073°60'0 0.0
2018-Jun-17 10:00N 40°40' W 073°60'0 0.0
2018-Jun-17 09:29N 40°40' W 073°60'0 0.0
2018-Jun-17 09:00N 40°40' W 073°60'0 0.0
2018-Jun-17 08:30N 40°40' W 073°60'0 0.0
2018-Jun-17 08:00N 40°40' W 073°60'0 0.0
2018-Jun-17 07:30N 40°40' W 073°60'0 0.0
2018-Jun-17 07:00N 40°40' W 073°60'0 0.0
2018-Jun-17 06:29N 40°40' W 073°60'0 0.0
2018-Jun-17 06:00N 40°40' W 073°60'0 0.0
2018-Jun-17 05:30N 40°40' W 073°60'0 0.0
2018-Jun-17 05:00N 40°40' W 073°60'0 0.0
2018-Jun-17 04:30N 40°40' W 073°60'0 0.0
2018-Jun-17 04:00N 40°40' W 073°60'0 0.0
2018-Jun-17 03:30N 40°40' W 073°60'0 0.0
2018-Jun-17 03:00N 40°40' W 073°60'0 0.0
2018-Jun-17 02:30N 40°40' W 073°60'0 0.0
2018-Jun-17 02:00N 40°40' W 073°60'0 0.0
2018-Jun-17 01:30N 40°40' W 073°60'0 0.0
2018-Jun-17 01:00N 40°40' W 073°60'0 0.0
2018-Jun-17 00:30N 40°40' W 073°60'0 0.1
2018-Jun-17 00:00N 40°40' W 073°60'0 0.0
2018-Jun-16 23:30N 40°40' W 073°60'0 0.0
2018-Jun-16 23:00N 40°40' W 073°60'0 0.0
2018-Jun-16 22:30N 40°40' W 073°60'0 0.0
2018-Jun-16 22:00N 40°40' W 073°60'0 0.0
2018-Jun-16 21:30N 40°40' W 073°60'0 0.0
2018-Jun-16 21:00N 40°40' W 073°60'0 0.0
2018-Jun-16 20:30N 40°40' W 073°60'0 0.0
2018-Jun-16 20:00N 40°40' W 073°60'2 4.5
2018-Jun-16 19:29N 40°39' W 074°03'4 6.4
2018-Jun-16 18:47N 40°39' W 074°08'2 5.8
2018-Jun-16 18:25N 40°39' W 074°11'1 1.4
2018-Jun-16 17:56N 40°38' W 074°12'0 0.0
2018-Jun-16 17:24N 40°38' W 074°12'0 0.0
2018-Jun-16 16:59N 40°38' W 074°12'0 0.3
2018-Jun-16 16:30N 40°38' W 074°12'0 0.0
2018-Jun-16 15:59N 40°38' W 074°12'0 0.0
2018-Jun-16 15:30N 40°38' W 074°12'0 0.1
2018-Jun-16 14:35N 40°38' W 074°12'0 0.0
2018-Jun-16 14:29N 40°38' W 074°12'0 0.0
2018-Jun-16 13:48N 40°38' W 074°12'0 0.0
2018-Jun-16 13:29N 40°38' W 074°12'0 0.0
2018-Jun-16 12:59N 40°38' W 074°12'0 0.1
2018-Jun-16 12:29N 40°38' W 074°12'2 3.5
2018-Jun-16 12:00N 40°39' W 074°10'3 6.1
2018-Jun-16 11:30N 40°39' W 074°06'2 4.3
2018-Jun-16 11:00N 40°39' W 074°03'2 3.9
2018-Jun-16 10:30N 40°40' W 074°01'1 1.3
2018-Jun-16 10:00N 40°40' W 073°60'0 0.0
2018-Jun-16 09:30N 40°40' W 073°60'0 0.0
2018-Jun-16 09:00N 40°40' W 073°60'0 0.0
2018-Jun-16 08:30N 40°40' W 073°60'0 0.0
2018-Jun-16 08:00N 40°40' W 073°60'0 0.0
2018-Jun-16 07:30N 40°40' W 073°60'0 0.0
2018-Jun-16 07:00N 40°40' W 073°60'0 0.0
2018-Jun-16 06:30N 40°40' W 073°60'0 0.0
2018-Jun-16 06:00N 40°40' W 073°60'0 0.0
2018-Jun-16 05:30N 40°40' W 073°60'0 0.0
2018-Jun-16 05:00N 40°40' W 073°60'0 0.0
2018-Jun-16 04:30N 40°40' W 073°60'0 0.0
2018-Jun-16 04:00N 40°40' W 073°60'0 0.0
2018-Jun-16 03:30N 40°40' W 073°60'0 0.0
2018-Jun-16 03:00N 40°40' W 073°60'0 0.0
2018-Jun-16 02:31N 40°40' W 073°60'0 0.1
2018-Jun-16 02:00N 40°40' W 073°60'0 0.0
2018-Jun-16 01:30N 40°40' W 073°60'0 0.0
2018-Jun-16 01:00N 40°40' W 073°60'0 0.0
2018-Jun-16 00:30N 40°40' W 073°60'0 0.0
2018-Jun-16 00:00N 40°40' W 073°60'0 0.0
2018-Jun-15 23:29N 40°40' W 073°60'0 0.0
2018-Jun-15 23:00N 40°40' W 073°60'0 0.0
2018-Jun-15 22:30N 40°40' W 073°60'0 0.0
2018-Jun-15 22:00N 40°40' W 073°60'0 0.0
2018-Jun-15 21:30N 40°40' W 073°60'0 0.0
2018-Jun-15 21:00N 40°40' W 073°60'0 0.0
2018-Jun-15 20:30N 40°40' W 073°60'0 0.0
2018-Jun-15 20:00N 40°40' W 073°60'0 0.5
2018-Jun-15 19:30N 40°40' W 074°00'3 5.1
2018-Jun-15 19:00N 40°39' W 074°03'4 6.7
2018-Jun-15 18:25N 40°39' W 074°08'3 4.5
2018-Jun-15 17:49N 40°38' W 074°12'0 0.0
2018-Jun-15 17:22N 40°38' W 074°12'0 0.1
2018-Jun-15 17:00N 40°38' W 074°12'0 0.0
2018-Jun-15 16:30N 40°38' W 074°12'0 0.0
2018-Jun-15 16:00N 40°38' W 074°12'0 0.0
2018-Jun-15 13:16N 40°38' W 074°12'1 3.1
2018-Jun-15 12:55N 40°39' W 074°11'2 5.1
2018-Jun-15 12:30N 40°39' W 074°08'3 5.6
2018-Jun-15 12:00N 40°39' W 074°04'2 4.3
2018-Jun-15 11:30N 40°39' W 074°01'1 2.6
2018-Jun-15 11:00N 40°40' W 073°60'0 0.0
2018-Jun-15 10:30N 40°40' W 073°60'0 0.0
2018-Jun-15 10:00N 40°40' W 073°60'0 0.0
2018-Jun-15 09:30N 40°40' W 073°60'0 0.0
2018-Jun-15 09:00N 40°40' W 073°60'0 0.0
2018-Jun-15 08:30N 40°40' W 073°60'0 0.0
2018-Jun-15 08:00N 40°40' W 073°60'0 0.0
2018-Jun-15 07:30N 40°40' W 073°60'0 0.0
2018-Jun-15 07:00N 40°40' W 073°60'0 0.0
2018-Jun-15 06:30N 40°40' W 073°60'0 0.0
2018-Jun-15 06:00N 40°40' W 073°60'0 0.0
2018-Jun-15 05:29N 40°40' W 073°60'0 0.0
2018-Jun-15 05:00N 40°40' W 073°60'0 0.0
2018-Jun-15 04:30N 40°40' W 073°60'0 0.0
2018-Jun-15 04:00N 40°40' W 073°60'0 0.0
2018-Jun-15 03:30N 40°40' W 073°60'0 0.0
2018-Jun-15 03:00N 40°40' W 073°60'0 0.0
2018-Jun-15 02:30N 40°40' W 073°60'0 0.0
2018-Jun-15 01:59N 40°40' W 073°60'0 0.0
2018-Jun-15 01:30N 40°40' W 073°60'0 0.0
2018-Jun-15 01:00N 40°40' W 073°60'0 0.0
2018-Jun-15 00:30N 40°40' W 073°60'0 0.0
2018-Jun-15 00:00N 40°40' W 073°60'0 0.0
2018-Jun-14 23:30N 40°40' W 073°60'0 0.0
2018-Jun-14 23:00N 40°40' W 073°60'0 0.0
2018-Jun-14 22:30N 40°40' W 073°60'0 0.0
2018-Jun-14 22:00N 40°40' W 073°60'0 0.0
2018-Jun-14 21:30N 40°40' W 073°60'0 0.0
2018-Jun-14 21:00N 40°40' W 073°60'0 0.0
2018-Jun-14 20:30N 40°40' W 073°60'0 0.0
2018-Jun-14 20:00N 40°40' W 073°60'0 0.0
2018-Jun-14 19:30N 40°40' W 073°60'0 0.0
2018-Jun-14 19:00N 40°40' W 073°60'1 2.3
2018-Jun-14 18:30N 40°41' W 074°01'1 1.2
2018-Jun-14 18:00N 40°41' W 074°01'2 3.3
2018-Jun-14 17:30N 40°40' W 074°03'2 4.9
2018-Jun-14 17:00N 40°41' W 074°01'1 1.9
2018-Jun-14 16:30N 40°40' W 074°01'1 1.9
2018-Jun-14 16:00N 40°40' W 074°00'3 5.6
2018-Jun-14 15:27N 40°39' W 074°04'4 6.4
2018-Jun-14 14:54N 40°39' W 074°08'2 6.0
2018-Jun-14 14:29N 40°38' W 074°12'0 0.2
2018-Jun-14 14:00N 40°38' W 074°12'0 0.0
2018-Jun-14 13:21N 40°38' W 074°12'0 0.0
2018-Jun-14 11:53N 40°38' W 074°12'1 3.3
2018-Jun-14 11:25N 40°39' W 074°10'1 1.9
2018-Jun-14 11:00N 40°38' W 074°09'0 0.1
2018-Jun-14 09:57N 40°38' W 074°09'2 0.4
2018-Jun-14 04:00N 40°38' W 074°12'0 0.0
2018-Jun-14 02:56N 40°38' W 074°12'0 0.0
2018-Jun-14 02:29N 40°38' W 074°12'0 0.0
2018-Jun-14 01:46N 40°38' W 074°12'0 0.0
2018-Jun-14 01:28N 40°38' W 074°12'0 0.0
2018-Jun-14 00:56N 40°38' W 074°12'1 1.8
2018-Jun-14 00:10N 40°39' W 074°10'1 4.6
2018-Jun-14 00:00N 40°39' W 074°09'2 4.2
2018-Jun-13 23:30N 40°39' W 074°06'3 5.1
2018-Jun-13 23:00N 40°39' W 074°03'2 3.8
2018-Jun-13 22:30N 40°40' W 074°01'1 1.6
2018-Jun-13 22:00N 40°40' W 073°60'0 0.0
2018-Jun-13 21:30N 40°40' W 073°60'0 0.0
2018-Jun-13 21:00N 40°40' W 073°60'0 0.0
2018-Jun-13 20:30N 40°40' W 073°60'0 0.0
2018-Jun-13 20:00N 40°40' W 073°60'0 0.0
2018-Jun-13 19:30N 40°40' W 073°60'0 0.0
2018-Jun-13 19:00N 40°40' W 073°60'2 4.5
2018-Jun-13 18:29N 40°39' W 074°03'3 5.9
2018-Jun-13 17:56N 40°39' W 074°07'3 5.9
2018-Jun-13 17:22N 40°39' W 074°11'1 1.8
2018-Jun-13 17:00N 40°38' W 074°12'0 0.1
2018-Jun-13 16:29N 40°38' W 074°12'0 0.0
2018-Jun-13 15:56N 40°38' W 074°12'0 0.0
2018-Jun-13 15:30N 40°38' W 074°12'0 0.0
2018-Jun-13 14:58N 40°38' W 074°12'2 2.9
2018-Jun-13 14:16N 40°38' W 074°09'0 0.1
2018-Jun-13 13:46N 40°38' W 074°09'0 0.1
2018-Jun-13 13:28N 40°38' W 074°09'0 0.0
2018-Jun-13 12:58N 40°38' W 074°09'0 0.0
2018-Jun-13 12:23N 40°38' W 074°09'0 0.0
2018-Jun-13 11:58N 40°38' W 074°09'0 0.0
2018-Jun-13 11:28N 40°38' W 074°09'0 0.0
2018-Jun-13 11:00N 40°38' W 074°09'0 0.0
2018-Jun-13 10:26N 40°38' W 074°09'0 0.1
2018-Jun-13 09:54N 40°38' W 074°09'2 4.6
2018-Jun-13 09:27N 40°38' W 074°12'0 0.0
2018-Jun-13 04:20N 40°38' W 074°12'2 4.5
2018-Jun-13 03:59N 40°39' W 074°10'2 3.7
2018-Jun-13 03:29N 40°39' W 074°08'1 3.1
2018-Jun-13 03:00N 40°39' W 074°06'2 3.5
2018-Jun-13 02:30N 40°39' W 074°03'2 5.0
2018-Jun-13 02:00N 40°40' W 074°00'0 0.7
2018-Jun-13 01:31N 40°40' W 073°60'0 0.0
2018-Jun-13 01:00N 40°40' W 073°60'0 0.0
2018-Jun-13 00:30N 40°40' W 073°60'0 0.0
2018-Jun-13 00:00N 40°40' W 073°60'0 0.0
2018-Jun-12 23:30N 40°40' W 073°60'0 0.0
2018-Jun-12 23:00N 40°40' W 073°60'0 0.0
2018-Jun-12 22:29N 40°40' W 073°60'0 0.0
2018-Jun-12 22:00N 40°40' W 073°60'0 0.0
2018-Jun-12 21:28N 40°40' W 073°60'2 4.8
2018-Jun-12 21:00N 40°40' W 074°03'1 1.2
2018-Jun-12 20:30N 40°40' W 074°03'2 4.7
2018-Jun-12 20:00N 40°40' W 074°00'0 0.7
2018-Jun-12 19:31N 40°40' W 073°60'1 2.4
2018-Jun-12 19:00N 40°40' W 074°01'3 5.0
2018-Jun-12 18:27N 40°39' W 074°05'3 6.0
2018-Jun-12 18:00N 40°39' W 074°08'3 5.0
2018-Jun-12 17:28N 40°38' W 074°12'1 0.9
2018-Jun-12 16:22N 40°39' W 074°11'2 5.2
2018-Jun-12 16:00N 40°39' W 074°08'2 4.2
2018-Jun-12 15:30N 40°39' W 074°06'2 4.7
2018-Jun-12 15:00N 40°39' W 074°03'2 4.6
2018-Jun-12 14:30N 40°40' W 073°60'0 0.1
2018-Jun-12 14:00N 40°40' W 073°60'0 0.0
2018-Jun-12 13:30N 40°40' W 073°60'0 0.0
2018-Jun-12 13:00N 40°40' W 073°60'0 0.0
2018-Jun-12 12:30N 40°40' W 073°60'0 0.0
2018-Jun-12 12:00N 40°40' W 073°60'0 0.0
2018-Jun-12 11:30N 40°40' W 073°60'  

Dump ship's entire track history